sensor_id;sensor_type;location;lat;lon;timestamp;temperature;humidity
24338;DHT22;12457;50.832;4.346;2024-02-21T00:01:07;9.80;99.90
24338;DHT22;12457;50.832;4.346;2024-02-21T00:03:32;9.80;99.90
24338;DHT22;12457;50.832;4.346;2024-02-21T00:06:04;9.90;99.90
24338;DHT22;12457;50.832;4.346;2024-02-21T00:08:29;10.00;99.90
24338;DHT22;12457;50.832;4.346;2024-02-21T00:10:55;9.90;99.90
24338;DHT22;12457;50.832;4.346;2024-02-21T00:13:20;10.00;99.90
24338;DHT22;12457;50.832;4.346;2024-02-21T00:15:46;10.00;99.90
24338;DHT22;12457;50.832;4.346;2024-02-21T00:18:12;9.90;99.90
24338;DHT22;12457;50.832;4.346;2024-02-21T00:20:38;9.80;99.90
24338;DHT22;12457;50.832;4.346;2024-02-21T00:23:06;9.80;99.90
24338;DHT22;12457;50.832;4.346;2024-02-21T00:25:33;9.70;99.90
24338;DHT22;12457;50.832;4.346;2024-02-21T00:27:59;9.70;99.90
24338;DHT22;12457;50.832;4.346;2024-02-21T00:30:24;9.70;99.90
24338;DHT22;12457;50.832;4.346;2024-02-21T00:32:50;9.80;99.90
24338;DHT22;12457;50.832;4.346;2024-02-21T00:35:16;9.80;99.90
24338;DHT22;12457;50.832;4.346;2024-02-21T00:37:42;9.80;99.90
24338;DHT22;12457;50.832;4.346;2024-02-21T00:40:08;9.80;99.90
24338;DHT22;12457;50.832;4.346;2024-02-21T00:42:33;9.90;99.90
24338;DHT22;12457;50.832;4.346;2024-02-21T00:44:59;9.90;99.90
24338;DHT22;12457;50.832;4.346;2024-02-21T00:47:25;9.90;99.90
24338;DHT22;12457;50.832;4.346;2024-02-21T00:49:51;9.90;99.90
24338;DHT22;12457;50.832;4.346;2024-02-21T00:52:16;9.80;99.90
24338;DHT22;12457;50.832;4.346;2024-02-21T00:54:42;9.80;99.90
24338;DHT22;12457;50.832;4.346;2024-02-21T00:57:08;9.80;99.90
24338;DHT22;12457;50.832;4.346;2024-02-21T00:59:33;9.80;99.90
24338;DHT22;12457;50.832;4.346;2024-02-21T01:01:59;9.90;99.90
24338;DHT22;12457;50.832;4.346;2024-02-21T01:04:24;9.80;99.90
24338;DHT22;12457;50.832;4.346;2024-02-21T01:06:50;9.70;99.90
24338;DHT22;12457;50.832;4.346;2024-02-21T01:09:16;9.80;99.90
24338;DHT22;12457;50.832;4.346;2024-02-21T01:11:42;9.80;99.90
24338;DHT22;12457;50.832;4.346;2024-02-21T01:14:08;9.80;99.90
24338;DHT22;12457;50.832;4.346;2024-02-21T01:16:33;9.80;99.90
24338;DHT22;12457;50.832;4.346;2024-02-21T01:18:59;9.80;99.90
24338;DHT22;12457;50.832;4.346;2024-02-21T01:21:24;9.70;99.90
24338;DHT22;12457;50.832;4.346;2024-02-21T01:23:50;9.70;99.90
24338;DHT22;12457;50.832;4.346;2024-02-21T01:26:16;9.60;99.90
24338;DHT22;12457;50.832;4.346;2024-02-21T01:28:41;9.50;99.90
24338;DHT22;12457;50.832;4.346;2024-02-21T01:31:07;9.40;99.90
24338;DHT22;12457;50.832;4.346;2024-02-21T01:33:33;9.30;99.90
24338;DHT22;12457;50.832;4.346;2024-02-21T01:36:04;9.30;99.90
24338;DHT22;12457;50.832;4.346;2024-02-21T01:38:32;9.30;99.90
24338;DHT22;12457;50.832;4.346;2024-02-21T01:40:58;9.30;99.90
24338;DHT22;12457;50.832;4.346;2024-02-21T01:43:24;9.30;99.90
24338;DHT22;12457;50.832;4.346;2024-02-21T01:45:52;9.40;99.90
24338;DHT22;12457;50.832;4.346;2024-02-21T01:48:18;9.40;99.90
24338;DHT22;12457;50.832;4.346;2024-02-21T01:50:48;9.40;99.90
24338;DHT22;12457;50.832;4.346;2024-02-21T01:53:23;9.40;99.90
24338;DHT22;12457;50.832;4.346;2024-02-21T01:55:50;9.30;99.90
24338;DHT22;12457;50.832;4.346;2024-02-21T01:58:17;9.30;99.90
24338;DHT22;12457;50.832;4.346;2024-02-21T02:00:45;9.30;99.90
24338;DHT22;12457;50.832;4.346;2024-02-21T02:03:13;9.30;99.90
24338;DHT22;12457;50.832;4.346;2024-02-21T02:05:49;9.30;99.90
24338;DHT22;12457;50.832;4.346;2024-02-21T02:08:16;9.30;99.90
24338;DHT22;12457;50.832;4.346;2024-02-21T02:10:42;9.50;99.90
24338;DHT22;12457;50.832;4.346;2024-02-21T02:13:09;9.50;99.90
24338;DHT22;12457;50.832;4.346;2024-02-21T02:15:43;9.50;99.90
24338;DHT22;12457;50.832;4.346;2024-02-21T02:18:09;9.60;99.90
24338;DHT22;12457;50.832;4.346;2024-02-21T02:20:38;9.60;99.90
24338;DHT22;12457;50.832;4.346;2024-02-21T02:23:31;9.60;99.90
24338;DHT22;12457;50.832;4.346;2024-02-21T02:25:59;9.60;99.90
24338;DHT22;12457;50.832;4.346;2024-02-21T02:28:26;9.60;99.90
24338;DHT22;12457;50.832;4.346;2024-02-21T02:30:52;9.60;99.90
24338;DHT22;12457;50.832;4.346;2024-02-21T02:33:18;9.60;99.90
24338;DHT22;12457;50.832;4.346;2024-02-21T02:35:44;9.60;99.90
24338;DHT22;12457;50.832;4.346;2024-02-21T02:38:10;9.60;99.90
24338;DHT22;12457;50.832;4.346;2024-02-21T02:40:38;9.60;99.90
24338;DHT22;12457;50.832;4.346;2024-02-21T02:43:04;9.60;99.90
24338;DHT22;12457;50.832;4.346;2024-02-21T02:45:30;9.60;99.90
24338;DHT22;12457;50.832;4.346;2024-02-21T02:47:57;9.60;99.90
24338;DHT22;12457;50.832;4.346;2024-02-21T02:50:23;9.60;99.90
24338;DHT22;12457;50.832;4.346;2024-02-21T02:52:49;9.70;99.90
24338;DHT22;12457;50.832;4.346;2024-02-21T02:55:15;9.70;99.90
24338;DHT22;12457;50.832;4.346;2024-02-21T02:57:41;9.70;99.90
24338;DHT22;12457;50.832;4.346;2024-02-21T03:00:08;9.70;99.90
24338;DHT22;12457;50.832;4.346;2024-02-21T03:02:35;9.70;99.90
24338;DHT22;12457;50.832;4.346;2024-02-21T03:05:01;9.60;99.90
24338;DHT22;12457;50.832;4.346;2024-02-21T03:07:29;9.50;99.90
24338;DHT22;12457;50.832;4.346;2024-02-21T03:09:55;9.60;99.90
24338;DHT22;12457;50.832;4.346;2024-02-21T03:12:21;9.60;99.90
24338;DHT22;12457;50.832;4.346;2024-02-21T03:14:53;9.70;99.90
24338;DHT22;12457;50.832;4.346;2024-02-21T03:17:19;9.70;99.90
24338;DHT22;12457;50.832;4.346;2024-02-21T03:19:44;9.70;99.90
24338;DHT22;12457;50.832;4.346;2024-02-21T03:22:10;9.50;99.90
24338;DHT22;12457;50.832;4.346;2024-02-21T03:24:36;9.70;99.90
24338;DHT22;12457;50.832;4.346;2024-02-21T03:27:01;9.70;99.90
24338;DHT22;12457;50.832;4.346;2024-02-21T03:29:28;9.70;99.90
24338;DHT22;12457;50.832;4.346;2024-02-21T03:31:55;9.70;99.90
24338;DHT22;12457;50.832;4.346;2024-02-21T03:34:20;9.60;99.90
24338;DHT22;12457;50.832;4.346;2024-02-21T03:36:46;9.70;99.90
24338;DHT22;12457;50.832;4.346;2024-02-21T03:39:12;9.70;99.90
24338;DHT22;12457;50.832;4.346;2024-02-21T03:41:37;9.60;99.90
24338;DHT22;12457;50.832;4.346;2024-02-21T03:44:03;9.60;99.90
24338;DHT22;12457;50.832;4.346;2024-02-21T03:46:30;9.50;99.90
24338;DHT22;12457;50.832;4.346;2024-02-21T03:48:57;9.50;99.90
24338;DHT22;12457;50.832;4.346;2024-02-21T03:51:23;9.60;99.90
24338;DHT22;12457;50.832;4.346;2024-02-21T03:53:49;9.50;99.90
24338;DHT22;12457;50.832;4.346;2024-02-21T03:56:15;9.60;99.90
24338;DHT22;12457;50.832;4.346;2024-02-21T03:58:40;9.50;99.90
24338;DHT22;12457;50.832;4.346;2024-02-21T04:01:06;9.50;99.90
24338;DHT22;12457;50.832;4.346;2024-02-21T04:03:31;9.60;99.90
24338;DHT22;12457;50.832;4.346;2024-02-21T04:06:00;9.60;99.90
24338;DHT22;12457;50.832;4.346;2024-02-21T04:08:26;9.60;99.90
24338;DHT22;12457;50.832;4.346;2024-02-21T04:10:52;9.60;99.90
24338;DHT22;12457;50.832;4.346;2024-02-21T04:13:17;9.60;99.90
24338;DHT22;12457;50.832;4.346;2024-02-21T04:15:43;9.70;99.90
24338;DHT22;12457;50.832;4.346;2024-02-21T04:18:09;9.60;99.90
24338;DHT22;12457;50.832;4.346;2024-02-21T04:20:34;9.60;99.90
24338;DHT22;12457;50.832;4.346;2024-02-21T04:23:00;9.60;99.90
24338;DHT22;12457;50.832;4.346;2024-02-21T04:25:26;9.60;99.90
24338;DHT22;12457;50.832;4.346;2024-02-21T04:27:52;9.70;99.90
24338;DHT22;12457;50.832;4.346;2024-02-21T04:30:18;9.60;99.90
24338;DHT22;12457;50.832;4.346;2024-02-21T04:32:43;9.60;99.90
24338;DHT22;12457;50.832;4.346;2024-02-21T04:35:09;9.60;99.90
24338;DHT22;12457;50.832;4.346;2024-02-21T04:37:40;9.70;99.90
24338;DHT22;12457;50.832;4.346;2024-02-21T04:40:06;9.60;99.90
24338;DHT22;12457;50.832;4.346;2024-02-21T04:42:32;9.60;99.90
24338;DHT22;12457;50.832;4.346;2024-02-21T04:44:58;9.60;99.90
24338;DHT22;12457;50.832;4.346;2024-02-21T04:47:23;9.50;99.90
24338;DHT22;12457;50.832;4.346;2024-02-21T04:49:50;9.50;99.90
24338;DHT22;12457;50.832;4.346;2024-02-21T04:52:16;9.60;99.90
24338;DHT22;12457;50.832;4.346;2024-02-21T04:54:41;9.60;99.90
24338;DHT22;12457;50.832;4.346;2024-02-21T04:57:07;9.50;99.90
24338;DHT22;12457;50.832;4.346;2024-02-21T04:59:33;9.50;99.90
24338;DHT22;12457;50.832;4.346;2024-02-21T05:02:00;9.50;99.90
24338;DHT22;12457;50.832;4.346;2024-02-21T05:04:26;9.60;99.90
24338;DHT22;12457;50.832;4.346;2024-02-21T05:06:51;9.60;99.90
24338;DHT22;12457;50.832;4.346;2024-02-21T05:09:17;9.60;99.90
24338;DHT22;12457;50.832;4.346;2024-02-21T05:11:43;9.60;99.90
24338;DHT22;12457;50.832;4.346;2024-02-21T05:14:08;9.60;99.90
24338;DHT22;12457;50.832;4.346;2024-02-21T05:16:34;9.60;99.90
24338;DHT22;12457;50.832;4.346;2024-02-21T05:19:00;9.60;99.90
24338;DHT22;12457;50.832;4.346;2024-02-21T05:21:26;9.60;99.90
24338;DHT22;12457;50.832;4.346;2024-02-21T05:23:52;9.60;99.90
24338;DHT22;12457;50.832;4.346;2024-02-21T05:26:21;9.60;99.90
24338;DHT22;12457;50.832;4.346;2024-02-21T05:28:48;9.60;99.90
24338;DHT22;12457;50.832;4.346;2024-02-21T05:31:15;9.60;99.90
24338;DHT22;12457;50.832;4.346;2024-02-21T05:33:42;9.50;99.90
24338;DHT22;12457;50.832;4.346;2024-02-21T05:36:08;9.50;99.90
24338;DHT22;12457;50.832;4.346;2024-02-21T05:38:34;9.50;99.90
24338;DHT22;12457;50.832;4.346;2024-02-21T05:41:01;9.50;99.90
24338;DHT22;12457;50.832;4.346;2024-02-21T05:43:26;9.50;99.90
24338;DHT22;12457;50.832;4.346;2024-02-21T05:45:52;9.50;99.90
24338;DHT22;12457;50.832;4.346;2024-02-21T05:48:17;9.50;99.90
24338;DHT22;12457;50.832;4.346;2024-02-21T05:50:43;9.50;99.90
24338;DHT22;12457;50.832;4.346;2024-02-21T05:53:21;9.50;99.90
24338;DHT22;12457;50.832;4.346;2024-02-21T05:55:47;9.50;99.90
24338;DHT22;12457;50.832;4.346;2024-02-21T05:58:12;9.50;99.90
24338;DHT22;12457;50.832;4.346;2024-02-21T06:00:39;9.50;99.90
24338;DHT22;12457;50.832;4.346;2024-02-21T06:03:05;9.50;99.90
24338;DHT22;12457;50.832;4.346;2024-02-21T06:05:36;9.60;99.90
24338;DHT22;12457;50.832;4.346;2024-02-21T06:08:26;9.60;99.90
24338;DHT22;12457;50.832;4.346;2024-02-21T06:10:52;9.60;99.90
24338;DHT22;12457;50.832;4.346;2024-02-21T06:13:20;9.60;99.90
24338;DHT22;12457;50.832;4.346;2024-02-21T06:15:47;9.70;99.90
24338;DHT22;12457;50.832;4.346;2024-02-21T06:18:13;9.70;99.90
24338;DHT22;12457;50.832;4.346;2024-02-21T06:20:38;9.70;99.90
24338;DHT22;12457;50.832;4.346;2024-02-21T06:23:06;9.70;99.90
24338;DHT22;12457;50.832;4.346;2024-02-21T06:25:32;9.80;99.90
24338;DHT22;12457;50.832;4.346;2024-02-21T06:27:57;9.80;99.90
24338;DHT22;12457;50.832;4.346;2024-02-21T06:30:23;9.70;99.90
24338;DHT22;12457;50.832;4.346;2024-02-21T06:32:48;9.70;99.90
24338;DHT22;12457;50.832;4.346;2024-02-21T06:35:14;9.70;99.90
24338;DHT22;12457;50.832;4.346;2024-02-21T06:37:52;9.70;99.90
24338;DHT22;12457;50.832;4.346;2024-02-21T06:40:22;9.70;99.90
24338;DHT22;12457;50.832;4.346;2024-02-21T06:42:49;9.70;99.90
24338;DHT22;12457;50.832;4.346;2024-02-21T06:45:15;9.70;99.90
24338;DHT22;12457;50.832;4.346;2024-02-21T06:47:42;9.70;99.90
24338;DHT22;12457;50.832;4.346;2024-02-21T06:50:09;9.60;99.90
24338;DHT22;12457;50.832;4.346;2024-02-21T06:52:44;9.70;99.90
24338;DHT22;12457;50.832;4.346;2024-02-21T06:55:11;9.70;99.90
24338;DHT22;12457;50.832;4.346;2024-02-21T06:57:37;9.70;99.90
24338;DHT22;12457;50.832;4.346;2024-02-21T07:00:04;9.70;99.90
24338;DHT22;12457;50.832;4.346;2024-02-21T07:02:34;9.60;99.90
24338;DHT22;12457;50.832;4.346;2024-02-21T07:04:59;9.60;99.90
24338;DHT22;12457;50.832;4.346;2024-02-21T07:07:34;9.60;99.90
24338;DHT22;12457;50.832;4.346;2024-02-21T07:10:00;9.60;99.90
24338;DHT22;12457;50.832;4.346;2024-02-21T07:12:26;9.60;99.90
24338;DHT22;12457;50.832;4.346;2024-02-21T07:14:52;9.60;99.90
24338;DHT22;12457;50.832;4.346;2024-02-21T07:17:17;9.60;99.90
24338;DHT22;12457;50.832;4.346;2024-02-21T07:19:43;9.50;99.90
24338;DHT22;12457;50.832;4.346;2024-02-21T07:22:09;9.50;99.90
24338;DHT22;12457;50.832;4.346;2024-02-21T07:24:34;9.40;99.90
24338;DHT22;12457;50.832;4.346;2024-02-21T07:27:00;9.40;99.90
24338;DHT22;12457;50.832;4.346;2024-02-21T07:29:30;9.40;99.90
24338;DHT22;12457;50.832;4.346;2024-02-21T07:31:56;9.40;99.90
24338;DHT22;12457;50.832;4.346;2024-02-21T07:34:21;9.50;99.90
24338;DHT22;12457;50.832;4.346;2024-02-21T07:36:47;9.50;99.90
24338;DHT22;12457;50.832;4.346;2024-02-21T07:39:25;9.50;99.90
24338;DHT22;12457;50.832;4.346;2024-02-21T07:41:51;9.50;99.90
24338;DHT22;12457;50.832;4.346;2024-02-21T07:44:17;9.50;99.90
24338;DHT22;12457;50.832;4.346;2024-02-21T07:46:42;9.60;99.90
24338;DHT22;12457;50.832;4.346;2024-02-21T07:49:08;9.60;99.90
24338;DHT22;12457;50.832;4.346;2024-02-21T07:51:34;9.60;99.90
24338;DHT22;12457;50.832;4.346;2024-02-21T07:54:01;9.60;99.90
24338;DHT22;12457;50.832;4.346;2024-02-21T07:56:29;9.60;99.90
24338;DHT22;12457;50.832;4.346;2024-02-21T07:58:58;9.60;99.90
24338;DHT22;12457;50.832;4.346;2024-02-21T08:01:24;9.60;99.90
24338;DHT22;12457;50.832;4.346;2024-02-21T08:03:50;9.70;99.90
24338;DHT22;12457;50.832;4.346;2024-02-21T08:06:16;9.70;99.90
24338;DHT22;12457;50.832;4.346;2024-02-21T08:08:42;9.60;99.90
24338;DHT22;12457;50.832;4.346;2024-02-21T08:11:07;9.70;99.90
24338;DHT22;12457;50.832;4.346;2024-02-21T08:13:33;9.70;99.90
24338;DHT22;12457;50.832;4.346;2024-02-21T08:15:59;9.70;99.90
24338;DHT22;12457;50.832;4.346;2024-02-21T08:18:25;9.80;99.90
24338;DHT22;12457;50.832;4.346;2024-02-21T08:20:51;9.90;99.90
24338;DHT22;12457;50.832;4.346;2024-02-21T08:23:18;9.90;99.90
24338;DHT22;12457;50.832;4.346;2024-02-21T08:25:44;9.90;99.90
24338;DHT22;12457;50.832;4.346;2024-02-21T08:28:09;10.00;99.90
24338;DHT22;12457;50.832;4.346;2024-02-21T08:30:35;10.00;99.90
24338;DHT22;12457;50.832;4.346;2024-02-21T08:33:00;10.00;99.90
24338;DHT22;12457;50.832;4.346;2024-02-21T08:35:26;10.10;99.90
24338;DHT22;12457;50.832;4.346;2024-02-21T08:37:52;10.10;99.90
24338;DHT22;12457;50.832;4.346;2024-02-21T08:40:18;10.10;99.90
24338;DHT22;12457;50.832;4.346;2024-02-21T08:42:46;10.10;99.90
24338;DHT22;12457;50.832;4.346;2024-02-21T08:45:13;10.20;99.90
24338;DHT22;12457;50.832;4.346;2024-02-21T08:47:41;10.20;99.90
24338;DHT22;12457;50.832;4.346;2024-02-21T08:50:10;10.20;99.90
24338;DHT22;12457;50.832;4.346;2024-02-21T08:52:36;10.20;99.90
24338;DHT22;12457;50.832;4.346;2024-02-21T08:55:02;10.20;99.90
24338;DHT22;12457;50.832;4.346;2024-02-21T08:57:28;10.20;99.90
24338;DHT22;12457;50.832;4.346;2024-02-21T08:59:53;10.20;99.90
24338;DHT22;12457;50.832;4.346;2024-02-21T09:02:19;10.20;99.90
24338;DHT22;12457;50.832;4.346;2024-02-21T09:04:45;10.20;99.90
24338;DHT22;12457;50.832;4.346;2024-02-21T09:07:11;10.20;99.90
24338;DHT22;12457;50.832;4.346;2024-02-21T09:09:38;10.30;99.90
24338;DHT22;12457;50.832;4.346;2024-02-21T09:12:06;10.40;99.90
24338;DHT22;12457;50.832;4.346;2024-02-21T09:14:33;10.40;99.90
24338;DHT22;12457;50.832;4.346;2024-02-21T09:16:58;10.40;99.90
24338;DHT22;12457;50.832;4.346;2024-02-21T09:19:24;10.40;99.90
24338;DHT22;12457;50.832;4.346;2024-02-21T09:21:50;10.40;99.90
24338;DHT22;12457;50.832;4.346;2024-02-21T09:24:15;10.40;99.90
24338;DHT22;12457;50.832;4.346;2024-02-21T09:26:41;10.50;99.90
24338;DHT22;12457;50.832;4.346;2024-02-21T09:29:06;10.50;99.90
24338;DHT22;12457;50.832;4.346;2024-02-21T09:31:33;10.60;99.90
24338;DHT22;12457;50.832;4.346;2024-02-21T09:33:58;10.70;99.90
24338;DHT22;12457;50.832;4.346;2024-02-21T09:36:24;10.80;99.90
24338;DHT22;12457;50.832;4.346;2024-02-21T09:38:50;10.80;99.90
24338;DHT22;12457;50.832;4.346;2024-02-21T09:41:17;10.90;99.90
24338;DHT22;12457;50.832;4.346;2024-02-21T09:43:44;10.90;99.90
24338;DHT22;12457;50.832;4.346;2024-02-21T09:46:18;10.90;99.90
24338;DHT22;12457;50.832;4.346;2024-02-21T09:49:04;11.00;99.90
24338;DHT22;12457;50.832;4.346;2024-02-21T09:51:36;11.10;99.90
24338;DHT22;12457;50.832;4.346;2024-02-21T09:54:04;11.20;99.90
24338;DHT22;12457;50.832;4.346;2024-02-21T09:56:30;11.30;99.90
24338;DHT22;12457;50.832;4.346;2024-02-21T09:58:56;11.30;99.90
24338;DHT22;12457;50.832;4.346;2024-02-21T10:01:22;11.30;99.90
24338;DHT22;12457;50.832;4.346;2024-02-21T10:03:48;11.30;99.90
24338;DHT22;12457;50.832;4.346;2024-02-21T10:06:15;11.30;99.90
24338;DHT22;12457;50.832;4.346;2024-02-21T10:08:43;11.40;99.90
24338;DHT22;12457;50.832;4.346;2024-02-21T10:11:25;11.40;99.90
24338;DHT22;12457;50.832;4.346;2024-02-21T10:13:51;11.40;99.90
24338;DHT22;12457;50.832;4.346;2024-02-21T10:16:17;11.50;99.90
24338;DHT22;12457;50.832;4.346;2024-02-21T10:18:42;11.60;99.90
24338;DHT22;12457;50.832;4.346;2024-02-21T10:21:08;11.60;99.90
24338;DHT22;12457;50.832;4.346;2024-02-21T10:23:46;11.70;99.90
24338;DHT22;12457;50.832;4.346;2024-02-21T10:26:13;11.70;99.90
24338;DHT22;12457;50.832;4.346;2024-02-21T10:28:39;11.80;99.90
24338;DHT22;12457;50.832;4.346;2024-02-21T10:31:11;11.90;99.90
24338;DHT22;12457;50.832;4.346;2024-02-21T10:33:37;11.90;99.90
24338;DHT22;12457;50.832;4.346;2024-02-21T10:36:10;12.00;99.90
24338;DHT22;12457;50.832;4.346;2024-02-21T10:38:39;11.90;99.90
24338;DHT22;12457;50.832;4.346;2024-02-21T10:41:06;11.80;99.90
24338;DHT22;12457;50.832;4.346;2024-02-21T10:43:39;11.80;99.90
24338;DHT22;12457;50.832;4.346;2024-02-21T10:46:08;11.70;99.90
24338;DHT22;12457;50.832;4.346;2024-02-21T10:48:45;11.70;99.90
24338;DHT22;12457;50.832;4.346;2024-02-21T10:51:15;11.70;99.90
24338;DHT22;12457;50.832;4.346;2024-02-21T10:54:09;11.80;99.90
24338;DHT22;12457;50.832;4.346;2024-02-21T10:56:39;11.90;99.90
24338;DHT22;12457;50.832;4.346;2024-02-21T10:59:07;12.10;99.90
24338;DHT22;12457;50.832;4.346;2024-02-21T11:01:33;12.10;99.90
24338;DHT22;12457;50.832;4.346;2024-02-21T11:04:06;12.20;99.90
24338;DHT22;12457;50.832;4.346;2024-02-21T11:06:34;12.10;99.90
24338;DHT22;12457;50.832;4.346;2024-02-21T11:11:27;12.10;99.90
24338;DHT22;12457;50.832;4.346;2024-02-21T11:14:26;12.10;99.90
24338;DHT22;12457;50.832;4.346;2024-02-21T11:16:49;12.10;99.90
24338;DHT22;12457;50.832;4.346;2024-02-21T11:21:47;12.20;99.90
24338;DHT22;12457;50.832;4.346;2024-02-21T11:24:31;12.30;99.90
24338;DHT22;12457;50.832;4.346;2024-02-21T11:27:13;12.10;99.90
24338;DHT22;12457;50.832;4.346;2024-02-21T11:29:44;12.00;99.90
24338;DHT22;12457;50.832;4.346;2024-02-21T11:32:10;12.00;99.90
24338;DHT22;12457;50.832;4.346;2024-02-21T11:34:39;11.90;99.90
24338;DHT22;12457;50.832;4.346;2024-02-21T11:37:14;11.90;99.90
24338;DHT22;12457;50.832;4.346;2024-02-21T11:39:47;11.90;99.90
24338;DHT22;12457;50.832;4.346;2024-02-21T11:42:14;11.90;99.90
24338;DHT22;12457;50.832;4.346;2024-02-21T11:44:40;11.90;99.90
24338;DHT22;12457;50.832;4.346;2024-02-21T11:47:08;11.90;99.90
24338;DHT22;12457;50.832;4.346;2024-02-21T11:49:43;12.00;99.90
24338;DHT22;12457;50.832;4.346;2024-02-21T11:52:12;11.90;99.90
24338;DHT22;12457;50.832;4.346;2024-02-21T11:54:41;11.90;99.90
24338;DHT22;12457;50.832;4.346;2024-02-21T11:57:07;11.80;99.90
24338;DHT22;12457;50.832;4.346;2024-02-21T11:59:33;11.80;99.90
24338;DHT22;12457;50.832;4.346;2024-02-21T12:02:00;11.80;99.90
24338;DHT22;12457;50.832;4.346;2024-02-21T12:04:27;11.80;99.90
24338;DHT22;12457;50.832;4.346;2024-02-21T12:06:53;11.80;99.90
24338;DHT22;12457;50.832;4.346;2024-02-21T12:09:20;11.90;99.90
24338;DHT22;12457;50.832;4.346;2024-02-21T12:12:00;11.80;99.90
24338;DHT22;12457;50.832;4.346;2024-02-21T12:14:27;11.70;99.90
24338;DHT22;12457;50.832;4.346;2024-02-21T12:16:54;11.70;99.90
24338;DHT22;12457;50.832;4.346;2024-02-21T12:19:20;11.80;99.90
24338;DHT22;12457;50.832;4.346;2024-02-21T12:21:48;11.70;99.90
24338;DHT22;12457;50.832;4.346;2024-02-21T12:24:17;11.70;99.90
24338;DHT22;12457;50.832;4.346;2024-02-21T12:26:43;11.70;99.90
24338;DHT22;12457;50.832;4.346;2024-02-21T12:29:09;11.60;99.90
24338;DHT22;12457;50.832;4.346;2024-02-21T12:31:36;11.60;99.90
24338;DHT22;12457;50.832;4.346;2024-02-21T12:34:02;11.60;99.90
24338;DHT22;12457;50.832;4.346;2024-02-21T12:36:28;11.70;99.90
24338;DHT22;12457;50.832;4.346;2024-02-21T12:38:53;11.80;99.90
24338;DHT22;12457;50.832;4.346;2024-02-21T12:41:25;11.80;99.90
24338;DHT22;12457;50.832;4.346;2024-02-21T12:43:53;11.80;99.90
24338;DHT22;12457;50.832;4.346;2024-02-21T12:46:20;11.80;99.90
24338;DHT22;12457;50.832;4.346;2024-02-21T12:48:45;11.80;99.90
24338;DHT22;12457;50.832;4.346;2024-02-21T12:51:11;11.90;99.90
24338;DHT22;12457;50.832;4.346;2024-02-21T12:53:37;11.90;99.90
24338;DHT22;12457;50.832;4.346;2024-02-21T12:56:21;11.90;99.90
24338;DHT22;12457;50.832;4.346;2024-02-21T12:58:46;11.90;99.90
24338;DHT22;12457;50.832;4.346;2024-02-21T13:01:12;12.00;99.90
24338;DHT22;12457;50.832;4.346;2024-02-21T13:03:38;12.00;99.90
24338;DHT22;12457;50.832;4.346;2024-02-21T13:06:05;12.10;99.90
24338;DHT22;12457;50.832;4.346;2024-02-21T13:08:31;12.20;99.90
24338;DHT22;12457;50.832;4.346;2024-02-21T13:10:58;12.10;99.90
24338;DHT22;12457;50.832;4.346;2024-02-21T13:13:24;12.10;99.90
24338;DHT22;12457;50.832;4.346;2024-02-21T13:15:50;12.10;99.90
24338;DHT22;12457;50.832;4.346;2024-02-21T13:18:15;12.10;99.90
24338;DHT22;12457;50.832;4.346;2024-02-21T13:20:41;12.10;99.90
24338;DHT22;12457;50.832;4.346;2024-02-21T13:23:06;12.00;99.90
24338;DHT22;12457;50.832;4.346;2024-02-21T13:25:32;12.00;99.90
24338;DHT22;12457;50.832;4.346;2024-02-21T13:27:58;12.00;99.90
24338;DHT22;12457;50.832;4.346;2024-02-21T13:30:24;11.80;99.90
24338;DHT22;12457;50.832;4.346;2024-02-21T13:32:51;11.70;99.90
24338;DHT22;12457;50.832;4.346;2024-02-21T13:35:16;11.70;99.90
24338;DHT22;12457;50.832;4.346;2024-02-21T13:37:42;11.60;99.90
24338;DHT22;12457;50.832;4.346;2024-02-21T13:40:14;11.60;99.90
24338;DHT22;12457;50.832;4.346;2024-02-21T13:42:40;11.50;99.90
24338;DHT22;12457;50.832;4.346;2024-02-21T13:45:06;11.40;99.90
24338;DHT22;12457;50.832;4.346;2024-02-21T13:47:33;11.50;99.90
24338;DHT22;12457;50.832;4.346;2024-02-21T13:49:58;11.30;99.90
24338;DHT22;12457;50.832;4.346;2024-02-21T13:52:24;11.20;99.90
24338;DHT22;12457;50.832;4.346;2024-02-21T13:54:52;11.20;99.90
24338;DHT22;12457;50.832;4.346;2024-02-21T13:57:23;11.20;99.90
24338;DHT22;12457;50.832;4.346;2024-02-21T13:59:50;11.20;99.90
24338;DHT22;12457;50.832;4.346;2024-02-21T14:02:16;11.10;99.90
24338;DHT22;12457;50.832;4.346;2024-02-21T14:04:42;11.10;99.90
24338;DHT22;12457;50.832;4.346;2024-02-21T14:07:08;11.00;99.90
24338;DHT22;12457;50.832;4.346;2024-02-21T14:09:34;11.00;99.90
24338;DHT22;12457;50.832;4.346;2024-02-21T14:11:59;11.00;99.90
24338;DHT22;12457;50.832;4.346;2024-02-21T14:14:25;10.90;99.90
24338;DHT22;12457;50.832;4.346;2024-02-21T14:16:51;10.80;99.90
24338;DHT22;12457;50.832;4.346;2024-02-21T14:19:16;10.80;99.90
24338;DHT22;12457;50.832;4.346;2024-02-21T14:21:45;10.80;99.90
24338;DHT22;12457;50.832;4.346;2024-02-21T14:24:11;10.80;99.90
24338;DHT22;12457;50.832;4.346;2024-02-21T14:26:38;10.80;99.90
24338;DHT22;12457;50.832;4.346;2024-02-21T14:29:06;10.70;99.90
24338;DHT22;12457;50.832;4.346;2024-02-21T14:31:32;10.60;99.90
24338;DHT22;12457;50.832;4.346;2024-02-21T14:33:58;10.60;99.90
24338;DHT22;12457;50.832;4.346;2024-02-21T14:36:26;10.50;99.90
24338;DHT22;12457;50.832;4.346;2024-02-21T14:38:52;10.60;99.90
24338;DHT22;12457;50.832;4.346;2024-02-21T14:41:18;10.50;99.90
24338;DHT22;12457;50.832;4.346;2024-02-21T14:43:44;10.50;99.90
24338;DHT22;12457;50.832;4.346;2024-02-21T14:46:09;10.40;99.90
24338;DHT22;12457;50.832;4.346;2024-02-21T14:48:37;10.40;99.90
24338;DHT22;12457;50.832;4.346;2024-02-21T14:51:03;10.30;99.90
24338;DHT22;12457;50.832;4.346;2024-02-21T14:53:29;10.30;99.90
24338;DHT22;12457;50.832;4.346;2024-02-21T14:55:56;10.30;99.90
24338;DHT22;12457;50.832;4.346;2024-02-21T14:58:23;10.30;99.90
24338;DHT22;12457;50.832;4.346;2024-02-21T15:00:49;10.30;99.90
24338;DHT22;12457;50.832;4.346;2024-02-21T15:03:18;10.20;99.90
24338;DHT22;12457;50.832;4.346;2024-02-21T15:05:47;10.20;99.90
24338;DHT22;12457;50.832;4.346;2024-02-21T15:08:13;10.20;99.90
24338;DHT22;12457;50.832;4.346;2024-02-21T15:10:42;10.10;99.90
24338;DHT22;12457;50.832;4.346;2024-02-21T15:13:08;10.20;99.90
24338;DHT22;12457;50.832;4.346;2024-02-21T15:15:34;10.10;99.90
24338;DHT22;12457;50.832;4.346;2024-02-21T15:18:00;10.10;99.90
24338;DHT22;12457;50.832;4.346;2024-02-21T15:20:25;10.00;99.90
24338;DHT22;12457;50.832;4.346;2024-02-21T15:22:52;10.00;99.90
24338;DHT22;12457;50.832;4.346;2024-02-21T15:25:17;10.00;99.90
24338;DHT22;12457;50.832;4.346;2024-02-21T15:27:44;9.90;99.90
24338;DHT22;12457;50.832;4.346;2024-02-21T15:30:11;10.00;99.90
24338;DHT22;12457;50.832;4.346;2024-02-21T15:32:38;9.90;99.90
24338;DHT22;12457;50.832;4.346;2024-02-21T15:35:05;9.90;99.90
24338;DHT22;12457;50.832;4.346;2024-02-21T15:37:33;9.90;99.90
24338;DHT22;12457;50.832;4.346;2024-02-21T15:39:59;9.90;99.90
24338;DHT22;12457;50.832;4.346;2024-02-21T15:42:26;9.90;99.90
24338;DHT22;12457;50.832;4.346;2024-02-21T15:44:52;9.90;99.90